sensor_id;sensor_type;location;lat;lon;timestamp;temperature;humidity
12957;DHT22;6543;48.836;10.092;2022-10-23T00:01:34;12.00;99.90
12957;DHT22;6543;48.836;10.092;2022-10-23T00:04:04;11.90;99.90
12957;DHT22;6543;48.836;10.092;2022-10-23T00:06:34;11.90;99.90
12957;DHT22;6543;48.836;10.092;2022-10-23T00:09:03;11.80;99.90
12957;DHT22;6543;48.836;10.092;2022-10-23T00:11:30;11.80;99.90
12957;DHT22;6543;48.836;10.092;2022-10-23T00:13:59;11.80;99.90
12957;DHT22;6543;48.836;10.092;2022-10-23T00:16:26;11.80;99.90
12957;DHT22;6543;48.836;10.092;2022-10-23T00:18:53;11.80;99.90
12957;DHT22;6543;48.836;10.092;2022-10-23T00:21:20;11.80;99.90
12957;DHT22;6543;48.836;10.092;2022-10-23T00:23:49;11.80;99.90
12957;DHT22;6543;48.836;10.092;2022-10-23T00:26:16;11.80;99.90
12957;DHT22;6543;48.836;10.092;2022-10-23T00:28:44;11.80;99.90
12957;DHT22;6543;48.836;10.092;2022-10-23T00:31:11;11.70;99.90
12957;DHT22;6543;48.836;10.092;2022-10-23T00:33:38;11.60;99.90
12957;DHT22;6543;48.836;10.092;2022-10-23T00:36:07;11.50;99.90
12957;DHT22;6543;48.836;10.092;2022-10-23T00:38:34;11.40;99.90
12957;DHT22;6543;48.836;10.092;2022-10-23T00:41:03;11.40;99.90
12957;DHT22;6543;48.836;10.092;2022-10-23T00:43:31;11.40;99.90
12957;DHT22;6543;48.836;10.092;2022-10-23T00:45:58;11.30;99.90
12957;DHT22;6543;48.836;10.092;2022-10-23T00:48:26;11.30;99.90
12957;DHT22;6543;48.836;10.092;2022-10-23T00:50:54;11.30;99.90
12957;DHT22;6543;48.836;10.092;2022-10-23T00:53:22;11.30;99.90
12957;DHT22;6543;48.836;10.092;2022-10-23T00:55:50;11.40;99.90
12957;DHT22;6543;48.836;10.092;2022-10-23T00:58:20;11.30;99.90
12957;DHT22;6543;48.836;10.092;2022-10-23T01:00:49;11.30;99.90
12957;DHT22;6543;48.836;10.092;2022-10-23T01:03:19;11.30;99.90
12957;DHT22;6543;48.836;10.092;2022-10-23T01:05:50;11.30;99.90
12957;DHT22;6543;48.836;10.092;2022-10-23T01:08:24;11.30;99.90
12957;DHT22;6543;48.836;10.092;2022-10-23T01:10:56;11.30;99.90
12957;DHT22;6543;48.836;10.092;2022-10-23T01:13:32;11.30;99.90
12957;DHT22;6543;48.836;10.092;2022-10-23T01:16:05;11.30;99.90
12957;DHT22;6543;48.836;10.092;2022-10-23T01:18:39;11.30;99.90
12957;DHT22;6543;48.836;10.092;2022-10-23T01:21:12;11.20;99.90
12957;DHT22;6543;48.836;10.092;2022-10-23T01:26:39;11.20;99.90
12957;DHT22;6543;48.836;10.092;2022-10-23T01:29:15;11.20;99.90
12957;DHT22;6543;48.836;10.092;2022-10-23T01:31:49;11.10;99.90
12957;DHT22;6543;48.836;10.092;2022-10-23T01:34:22;11.10;99.90
12957;DHT22;6543;48.836;10.092;2022-10-23T01:36:54;11.10;99.90
12957;DHT22;6543;48.836;10.092;2022-10-23T01:39:25;11.00;99.90
12957;DHT22;6543;48.836;10.092;2022-10-23T01:41:56;11.00;99.90
12957;DHT22;6543;48.836;10.092;2022-10-23T01:44:28;10.90;99.90
12957;DHT22;6543;48.836;10.092;2022-10-23T01:46:57;11.00;99.90
12957;DHT22;6543;48.836;10.092;2022-10-23T01:49:24;10.90;99.90
12957;DHT22;6543;48.836;10.092;2022-10-23T01:51:54;11.00;99.90
12957;DHT22;6543;48.836;10.092;2022-10-23T01:54:25;11.00;99.90
12957;DHT22;6543;48.836;10.092;2022-10-23T01:56:54;11.20;99.90
12957;DHT22;6543;48.836;10.092;2022-10-23T01:59:28;11.20;99.90
12957;DHT22;6543;48.836;10.092;2022-10-23T02:01:56;11.20;99.90
12957;DHT22;6543;48.836;10.092;2022-10-23T02:04:29;11.10;99.90
12957;DHT22;6543;48.836;10.092;2022-10-23T02:06:56;11.20;99.90
12957;DHT22;6543;48.836;10.092;2022-10-23T02:09:24;11.00;99.90
12957;DHT22;6543;48.836;10.092;2022-10-23T02:11:54;11.10;99.90
12957;DHT22;6543;48.836;10.092;2022-10-23T02:14:32;11.20;99.90
12957;DHT22;6543;48.836;10.092;2022-10-23T02:17:07;11.20;99.90
12957;DHT22;6543;48.836;10.092;2022-10-23T02:19:40;11.30;99.90
12957;DHT22;6543;48.836;10.092;2022-10-23T02:22:12;11.30;99.90
12957;DHT22;6543;48.836;10.092;2022-10-23T02:24:44;11.30;99.90
12957;DHT22;6543;48.836;10.092;2022-10-23T02:27:15;11.20;99.90
12957;DHT22;6543;48.836;10.092;2022-10-23T02:29:47;11.20;99.90
12957;DHT22;6543;48.836;10.092;2022-10-23T02:32:17;11.10;99.90
12957;DHT22;6543;48.836;10.092;2022-10-23T02:34:45;11.00;99.90
12957;DHT22;6543;48.836;10.092;2022-10-23T02:37:12;11.00;99.90
12957;DHT22;6543;48.836;10.092;2022-10-23T02:39:39;10.90;99.90
12957;DHT22;6543;48.836;10.092;2022-10-23T02:42:10;10.90;99.90
12957;DHT22;6543;48.836;10.092;2022-10-23T02:44:42;10.80;99.90
12957;DHT22;6543;48.836;10.092;2022-10-23T02:47:23;10.80;99.90
12957;DHT22;6543;48.836;10.092;2022-10-23T02:50:02;10.80;99.90
12957;DHT22;6543;48.836;10.092;2022-10-23T02:52:36;10.80;99.90
12957;DHT22;6543;48.836;10.092;2022-10-23T02:55:11;10.80;99.90
12957;DHT22;6543;48.836;10.092;2022-10-23T02:57:43;10.80;99.90
12957;DHT22;6543;48.836;10.092;2022-10-23T03:00:14;10.90;99.90
12957;DHT22;6543;48.836;10.092;2022-10-23T03:02:45;10.90;99.90
12957;DHT22;6543;48.836;10.092;2022-10-23T03:05:16;10.90;99.90
12957;DHT22;6543;48.836;10.092;2022-10-23T03:07:44;10.90;99.90
12957;DHT22;6543;48.836;10.092;2022-10-23T03:10:12;10.90;99.90
12957;DHT22;6543;48.836;10.092;2022-10-23T03:12:39;10.80;99.90
12957;DHT22;6543;48.836;10.092;2022-10-23T03:15:07;10.70;99.90
12957;DHT22;6543;48.836;10.092;2022-10-23T03:17:34;10.60;99.90
12957;DHT22;6543;48.836;10.092;2022-10-23T03:20:02;10.60;99.90
12957;DHT22;6543;48.836;10.092;2022-10-23T03:22:29;10.60;99.90
12957;DHT22;6543;48.836;10.092;2022-10-23T03:24:56;10.70;99.90
12957;DHT22;6543;48.836;10.092;2022-10-23T03:27:23;10.70;99.90
12957;DHT22;6543;48.836;10.092;2022-10-23T03:29:50;10.90;99.90
12957;DHT22;6543;48.836;10.092;2022-10-23T03:32:17;10.90;99.90
12957;DHT22;6543;48.836;10.092;2022-10-23T03:34:43;11.00;99.90
12957;DHT22;6543;48.836;10.092;2022-10-23T03:37:12;11.10;99.90
12957;DHT22;6543;48.836;10.092;2022-10-23T03:39:39;11.10;99.90
12957;DHT22;6543;48.836;10.092;2022-10-23T03:42:05;11.10;99.90
12957;DHT22;6543;48.836;10.092;2022-10-23T03:44:32;11.00;99.90
12957;DHT22;6543;48.836;10.092;2022-10-23T03:46:59;11.00;99.90
12957;DHT22;6543;48.836;10.092;2022-10-23T03:49:26;11.00;99.90
12957;DHT22;6543;48.836;10.092;2022-10-23T03:51:53;11.00;99.90
12957;DHT22;6543;48.836;10.092;2022-10-23T03:54:23;11.10;99.90
12957;DHT22;6543;48.836;10.092;2022-10-23T03:56:50;11.20;99.90
12957;DHT22;6543;48.836;10.092;2022-10-23T03:59:17;11.30;99.90
12957;DHT22;6543;48.836;10.092;2022-10-23T04:01:44;11.30;99.90
12957;DHT22;6543;48.836;10.092;2022-10-23T04:04:11;11.40;99.90
12957;DHT22;6543;48.836;10.092;2022-10-23T04:06:38;11.40;99.90
12957;DHT22;6543;48.836;10.092;2022-10-23T04:09:06;11.40;99.90
12957;DHT22;6543;48.836;10.092;2022-10-23T04:11:34;11.60;99.90
12957;DHT22;6543;48.836;10.092;2022-10-23T04:14:01;11.60;99.90
12957;DHT22;6543;48.836;10.092;2022-10-23T04:16:28;11.70;99.90
12957;DHT22;6543;48.836;10.092;2022-10-23T04:18:55;11.90;99.90
12957;DHT22;6543;48.836;10.092;2022-10-23T04:21:22;11.60;99.90
12957;DHT22;6543;48.836;10.092;2022-10-23T04:23:48;11.60;99.90
12957;DHT22;6543;48.836;10.092;2022-10-23T04:26:15;11.50;99.90
12957;DHT22;6543;48.836;10.092;2022-10-23T04:28:43;11.50;99.90
12957;DHT22;6543;48.836;10.092;2022-10-23T04:31:10;11.50;99.90
12957;DHT22;6543;48.836;10.092;2022-10-23T04:33:37;11.50;99.90
12957;DHT22;6543;48.836;10.092;2022-10-23T04:36:05;11.40;99.90
12957;DHT22;6543;48.836;10.092;2022-10-23T04:38:32;11.30;99.90
12957;DHT22;6543;48.836;10.092;2022-10-23T04:40:58;11.30;99.90
12957;DHT22;6543;48.836;10.092;2022-10-23T04:43:25;11.30;99.90
12957;DHT22;6543;48.836;10.092;2022-10-23T04:45:53;11.40;99.90
12957;DHT22;6543;48.836;10.092;2022-10-23T04:48:20;11.50;99.90
12957;DHT22;6543;48.836;10.092;2022-10-23T04:50:54;11.40;99.90
12957;DHT22;6543;48.836;10.092;2022-10-23T04:53:22;11.40;99.90
12957;DHT22;6543;48.836;10.092;2022-10-23T04:55:49;11.40;99.90
12957;DHT22;6543;48.836;10.092;2022-10-23T04:58:16;11.30;99.90
12957;DHT22;6543;48.836;10.092;2022-10-23T05:00:43;11.30;99.90
12957;DHT22;6543;48.836;10.092;2022-10-23T05:03:11;11.20;99.90
12957;DHT22;6543;48.836;10.092;2022-10-23T05:05:38;11.20;99.90
12957;DHT22;6543;48.836;10.092;2022-10-23T05:08:05;11.10;99.90
12957;DHT22;6543;48.836;10.092;2022-10-23T05:10:32;11.20;99.90
12957;DHT22;6543;48.836;10.092;2022-10-23T05:12:59;11.20;99.90
12957;DHT22;6543;48.836;10.092;2022-10-23T05:15:26;11.30;99.90
12957;DHT22;6543;48.836;10.092;2022-10-23T05:17:55;11.30;99.90
12957;DHT22;6543;48.836;10.092;2022-10-23T05:20:28;11.20;99.90
12957;DHT22;6543;48.836;10.092;2022-10-23T05:22:58;11.20;99.90
12957;DHT22;6543;48.836;10.092;2022-10-23T05:25:26;11.20;99.90
12957;DHT22;6543;48.836;10.092;2022-10-23T05:27:53;11.20;99.90
12957;DHT22;6543;48.836;10.092;2022-10-23T05:30:20;11.20;99.90
12957;DHT22;6543;48.836;10.092;2022-10-23T05:32:47;11.30;99.90
12957;DHT22;6543;48.836;10.092;2022-10-23T05:35:16;11.30;99.90
12957;DHT22;6543;48.836;10.092;2022-10-23T05:37:47;11.20;99.90
12957;DHT22;6543;48.836;10.092;2022-10-23T05:40:16;11.30;99.90
12957;DHT22;6543;48.836;10.092;2022-10-23T05:42:43;11.30;99.90
12957;DHT22;6543;48.836;10.092;2022-10-23T05:45:10;11.20;99.90
12957;DHT22;6543;48.836;10.092;2022-10-23T05:47:36;11.20;99.90
12957;DHT22;6543;48.836;10.092;2022-10-23T05:50:04;11.30;99.90
12957;DHT22;6543;48.836;10.092;2022-10-23T05:52:31;11.30;99.90
12957;DHT22;6543;48.836;10.092;2022-10-23T05:54:59;11.30;99.90
12957;DHT22;6543;48.836;10.092;2022-10-23T05:57:26;11.40;99.90
12957;DHT22;6543;48.836;10.092;2022-10-23T05:59:52;11.30;99.90
12957;DHT22;6543;48.836;10.092;2022-10-23T06:02:19;11.30;99.90
12957;DHT22;6543;48.836;10.092;2022-10-23T06:04:46;11.30;99.90
12957;DHT22;6543;48.836;10.092;2022-10-23T06:07:13;11.40;99.90
12957;DHT22;6543;48.836;10.092;2022-10-23T06:09:40;11.30;99.90
12957;DHT22;6543;48.836;10.092;2022-10-23T06:12:08;11.20;99.90
12957;DHT22;6543;48.836;10.092;2022-10-23T06:14:34;11.30;99.90
12957;DHT22;6543;48.836;10.092;2022-10-23T06:17:01;11.40;99.90
12957;DHT22;6543;48.836;10.092;2022-10-23T06:19:28;11.40;99.90
12957;DHT22;6543;48.836;10.092;2022-10-23T06:21:55;11.50;99.90
12957;DHT22;6543;48.836;10.092;2022-10-23T06:24:22;11.50;99.90
12957;DHT22;6543;48.836;10.092;2022-10-23T06:26:49;11.60;99.90
12957;DHT22;6543;48.836;10.092;2022-10-23T06:29:17;11.60;99.90
12957;DHT22;6543;48.836;10.092;2022-10-23T06:31:43;11.60;99.90
12957;DHT22;6543;48.836;10.092;2022-10-23T06:34:11;11.60;99.90
12957;DHT22;6543;48.836;10.092;2022-10-23T06:36:38;11.60;99.90
12957;DHT22;6543;48.836;10.092;2022-10-23T06:39:05;11.60;99.90
12957;DHT22;6543;48.836;10.092;2022-10-23T06:41:32;11.60;99.90
12957;DHT22;6543;48.836;10.092;2022-10-23T06:43:59;11.70;99.90
12957;DHT22;6543;48.836;10.092;2022-10-23T06:46:28;11.70;99.90
12957;DHT22;6543;48.836;10.092;2022-10-23T06:48:57;11.80;99.90
12957;DHT22;6543;48.836;10.092;2022-10-23T06:51:24;11.80;99.90
12957;DHT22;6543;48.836;10.092;2022-10-23T06:53:54;11.90;99.90
12957;DHT22;6543;48.836;10.092;2022-10-23T06:56:21;12.00;99.90
12957;DHT22;6543;48.836;10.092;2022-10-23T06:58:49;12.00;99.90
12957;DHT22;6543;48.836;10.092;2022-10-23T07:01:16;12.00;99.90
12957;DHT22;6543;48.836;10.092;2022-10-23T07:03:44;12.10;99.90
12957;DHT22;6543;48.836;10.092;2022-10-23T07:06:13;12.10;99.90
12957;DHT22;6543;48.836;10.092;2022-10-23T07:08:40;12.10;99.90
12957;DHT22;6543;48.836;10.092;2022-10-23T07:11:08;12.20;99.90
12957;DHT22;6543;48.836;10.092;2022-10-23T07:13:36;12.10;99.90
12957;DHT22;6543;48.836;10.092;2022-10-23T07:16:11;12.20;99.90
12957;DHT22;6543;48.836;10.092;2022-10-23T07:18:39;12.30;99.90
12957;DHT22;6543;48.836;10.092;2022-10-23T07:21:07;12.20;99.90
12957;DHT22;6543;48.836;10.092;2022-10-23T07:23:34;12.20;99.90
12957;DHT22;6543;48.836;10.092;2022-10-23T07:26:05;12.30;99.90
12957;DHT22;6543;48.836;10.092;2022-10-23T07:28:32;12.40;99.90
12957;DHT22;6543;48.836;10.092;2022-10-23T07:30:59;12.50;99.90
12957;DHT22;6543;48.836;10.092;2022-10-23T07:33:26;12.50;99.90
12957;DHT22;6543;48.836;10.092;2022-10-23T07:35:53;12.60;99.90
12957;DHT22;6543;48.836;10.092;2022-10-23T07:38:21;12.60;99.90
12957;DHT22;6543;48.836;10.092;2022-10-23T07:40:48;12.70;99.90
12957;DHT22;6543;48.836;10.092;2022-10-23T07:43:15;12.80;99.90
12957;DHT22;6543;48.836;10.092;2022-10-23T07:45:46;12.90;99.90
12957;DHT22;6543;48.836;10.092;2022-10-23T07:48:13;13.10;99.90
12957;DHT22;6543;48.836;10.092;2022-10-23T07:50:40;13.20;99.90
12957;DHT22;6543;48.836;10.092;2022-10-23T07:53:12;13.20;99.90
12957;DHT22;6543;48.836;10.092;2022-10-23T07:55:42;13.30;99.90
12957;DHT22;6543;48.836;10.092;2022-10-23T07:58:08;13.30;99.90
12957;DHT22;6543;48.836;10.092;2022-10-23T08:00:38;13.30;99.90
12957;DHT22;6543;48.836;10.092;2022-10-23T08:03:06;13.30;99.90
12957;DHT22;6543;48.836;10.092;2022-10-23T08:05:33;13.20;99.90
12957;DHT22;6543;48.836;10.092;2022-10-23T08:08:00;13.20;99.90
12957;DHT22;6543;48.836;10.092;2022-10-23T08:10:27;13.20;99.90
12957;DHT22;6543;48.836;10.092;2022-10-23T08:12:55;13.20;99.90
12957;DHT22;6543;48.836;10.092;2022-10-23T08:15:22;13.30;99.90
12957;DHT22;6543;48.836;10.092;2022-10-23T08:17:49;13.30;99.90
12957;DHT22;6543;48.836;10.092;2022-10-23T08:20:16;13.40;99.90
12957;DHT22;6543;48.836;10.092;2022-10-23T08:22:43;13.50;99.90
12957;DHT22;6543;48.836;10.092;2022-10-23T08:25:09;13.60;99.90
12957;DHT22;6543;48.836;10.092;2022-10-23T08:27:37;13.60;99.90
12957;DHT22;6543;48.836;10.092;2022-10-23T08:30:06;13.50;99.90
12957;DHT22;6543;48.836;10.092;2022-10-23T08:32:33;13.60;99.90
12957;DHT22;6543;48.836;10.092;2022-10-23T08:35:00;13.70;99.90
12957;DHT22;6543;48.836;10.092;2022-10-23T08:37:27;13.90;99.90
12957;DHT22;6543;48.836;10.092;2022-10-23T08:39:54;13.80;99.90
12957;DHT22;6543;48.836;10.092;2022-10-23T08:42:24;13.90;99.90
12957;DHT22;6543;48.836;10.092;2022-10-23T08:44:56;14.00;99.90
12957;DHT22;6543;48.836;10.092;2022-10-23T08:47:32;14.00;99.90
12957;DHT22;6543;48.836;10.092;2022-10-23T08:50:05;14.00;99.90
12957;DHT22;6543;48.836;10.092;2022-10-23T08:52:36;14.10;99.90
12957;DHT22;6543;48.836;10.092;2022-10-23T08:55:14;14.10;99.90
12957;DHT22;6543;48.836;10.092;2022-10-23T08:57:46;14.30;99.90
12957;DHT22;6543;48.836;10.092;2022-10-23T09:00:17;14.40;99.90
12957;DHT22;6543;48.836;10.092;2022-10-23T09:02:47;14.40;99.90
12957;DHT22;6543;48.836;10.092;2022-10-23T09:05:17;14.60;99.90
12957;DHT22;6543;48.836;10.092;2022-10-23T09:08:06;14.70;99.90
12957;DHT22;6543;48.836;10.092;2022-10-23T09:10:47;15.00;99.90
12957;DHT22;6543;48.836;10.092;2022-10-23T09:16:27;15.10;99.90
12957;DHT22;6543;48.836;10.092;2022-10-23T09:18:58;15.30;99.90
12957;DHT22;6543;48.836;10.092;2022-10-23T09:21:26;15.30;99.90
12957;DHT22;6543;48.836;10.092;2022-10-23T09:23:53;15.30;99.90
12957;DHT22;6543;48.836;10.092;2022-10-23T09:26:20;15.40;99.90
12957;DHT22;6543;48.836;10.092;2022-10-23T09:28:48;15.50;99.90
12957;DHT22;6543;48.836;10.092;2022-10-23T09:31:16;15.60;99.90
12957;DHT22;6543;48.836;10.092;2022-10-23T09:33:53;15.60;99.90
12957;DHT22;6543;48.836;10.092;2022-10-23T09:36:23;15.70;99.90
12957;DHT22;6543;48.836;10.092;2022-10-23T09:38:52;15.80;99.90
12957;DHT22;6543;48.836;10.092;2022-10-23T09:41:22;16.00;99.90
12957;DHT22;6543;48.836;10.092;2022-10-23T09:44:06;16.20;99.90
12957;DHT22;6543;48.836;10.092;2022-10-23T09:46:42;16.40;99.90
12957;DHT22;6543;48.836;10.092;2022-10-23T09:49:16;16.70;99.90
12957;DHT22;6543;48.836;10.092;2022-10-23T09:51:59;16.90;99.90
12957;DHT22;6543;48.836;10.092;2022-10-23T09:54:27;17.10;99.90
12957;DHT22;6543;48.836;10.092;2022-10-23T09:57:11;17.20;99.90
12957;DHT22;6543;48.836;10.092;2022-10-23T09:59:41;17.40;99.90
12957;DHT22;6543;48.836;10.092;2022-10-23T10:02:19;17.60;99.90
12957;DHT22;6543;48.836;10.092;2022-10-23T10:04:47;17.60;99.90
12957;DHT22;6543;48.836;10.092;2022-10-23T10:07:19;17.80;99.90
12957;DHT22;6543;48.836;10.092;2022-10-23T10:09:46;18.00;99.90
12957;DHT22;6543;48.836;10.092;2022-10-23T10:12:24;18.10;99.90
12957;DHT22;6543;48.836;10.092;2022-10-23T10:15:03;18.30;99.90
12957;DHT22;6543;48.836;10.092;2022-10-23T10:17:38;18.40;99.90
12957;DHT22;6543;48.836;10.092;2022-10-23T10:20:23;18.50;99.90
12957;DHT22;6543;48.836;10.092;2022-10-23T10:22:57;18.70;99.90
12957;DHT22;6543;48.836;10.092;2022-10-23T10:25:30;18.80;99.90
12957;DHT22;6543;48.836;10.092;2022-10-23T10:28:11;18.90;99.90
12957;DHT22;6543;48.836;10.092;2022-10-23T10:30:48;19.00;99.90
12957;DHT22;6543;48.836;10.092;2022-10-23T10:33:23;19.00;99.90
12957;DHT22;6543;48.836;10.092;2022-10-23T10:35:54;19.10;99.90
12957;DHT22;6543;48.836;10.092;2022-10-23T10:38:40;19.30;99.90
12957;DHT22;6543;48.836;10.092;2022-10-23T10:46:57;19.60;99.90
12957;DHT22;6543;48.836;10.092;2022-10-23T10:49:31;19.80;99.90
12957;DHT22;6543;48.836;10.092;2022-10-23T10:52:08;19.90;99.90
12957;DHT22;6543;48.836;10.092;2022-10-23T10:54:51;20.70;99.90
12957;DHT22;6543;48.836;10.092;2022-10-23T10:57:28;20.00;99.90
12957;DHT22;6543;48.836;10.092;2022-10-23T10:59:59;20.10;99.90
12957;DHT22;6543;48.836;10.092;2022-10-23T11:02:29;20.20;99.90
12957;DHT22;6543;48.836;10.092;2022-10-23T11:05:04;20.30;99.90
12957;DHT22;6543;48.836;10.092;2022-10-23T11:07:39;20.40;99.90
12957;DHT22;6543;48.836;10.092;2022-10-23T11:10:16;20.50;99.90
12957;DHT22;6543;48.836;10.092;2022-10-23T11:12:44;20.60;99.90
12957;DHT22;6543;48.836;10.092;2022-10-23T11:15:14;20.70;99.90
12957;DHT22;6543;48.836;10.092;2022-10-23T11:17:44;20.70;99.90
12957;DHT22;6543;48.836;10.092;2022-10-23T11:20:30;20.70;99.90
12957;DHT22;6543;48.836;10.092;2022-10-23T11:23:10;20.60;99.90
12957;DHT22;6543;48.836;10.092;2022-10-23T11:25:53;20.60;99.90
12957;DHT22;6543;48.836;10.092;2022-10-23T11:28:31;20.50;99.90
12957;DHT22;6543;48.836;10.092;2022-10-23T11:31:08;20.60;99.90
12957;DHT22;6543;48.836;10.092;2022-10-23T11:34:02;20.70;99.90
12957;DHT22;6543;48.836;10.092;2022-10-23T11:36:41;20.80;99.90
12957;DHT22;6543;48.836;10.092;2022-10-23T11:39:19;20.90;99.90
12957;DHT22;6543;48.836;10.092;2022-10-23T11:41:51;21.00;99.90
12957;DHT22;6543;48.836;10.092;2022-10-23T11:44:27;21.00;99.90
12957;DHT22;6543;48.836;10.092;2022-10-23T11:47:02;21.10;99.90
12957;DHT22;6543;48.836;10.092;2022-10-23T11:49:29;21.20;99.90
12957;DHT22;6543;48.836;10.092;2022-10-23T11:52:00;21.10;99.90
12957;DHT22;6543;48.836;10.092;2022-10-23T11:54:27;20.90;99.90
12957;DHT22;6543;48.836;10.092;2022-10-23T11:57:10;20.80;99.90
12957;DHT22;6543;48.836;10.092;2022-10-23T11:59:50;20.50;99.90
12957;DHT22;6543;48.836;10.092;2022-10-23T12:02:27;20.50;99.90
12957;DHT22;6543;48.836;10.092;2022-10-23T12:04:57;20.30;99.90
12957;DHT22;6543;48.836;10.092;2022-10-23T12:07:27;20.30;99.90
12957;DHT22;6543;48.836;10.092;2022-10-23T12:09:56;20.10;99.90
12957;DHT22;6543;48.836;10.092;2022-10-23T12:12:29;20.30;99.90
12957;DHT22;6543;48.836;10.092;2022-10-23T12:15:08;20.10;99.90
12957;DHT22;6543;48.836;10.092;2022-10-23T12:17:44;19.90;99.90
12957;DHT22;6543;48.836;10.092;2022-10-23T12:20:25;20.20;99.90
12957;DHT22;6543;48.836;10.092;2022-10-23T12:26:15;19.80;99.90
12957;DHT22;6543;48.836;10.092;2022-10-23T12:28:50;19.60;99.90
12957;DHT22;6543;48.836;10.092;2022-10-23T12:31:31;19.80;99.90
12957;DHT22;6543;48.836;10.092;2022-10-23T12:34:08;19.80;99.90
12957;DHT22;6543;48.836;10.092;2022-10-23T12:36:50;19.80;99.90
12957;DHT22;6543;48.836;10.092;2022-10-23T12:39:26;19.80;99.90
12957;DHT22;6543;48.836;10.092;2022-10-23T12:41:54;19.80;99.90
12957;DHT22;6543;48.836;10.092;2022-10-23T12:44:23;19.80;99.90
12957;DHT22;6543;48.836;10.092;2022-10-23T12:46:53;19.70;99.90
12957;DHT22;6543;48.836;10.092;2022-10-23T12:49:23;19.60;99.90
12957;DHT22;6543;48.836;10.092;2022-10-23T12:51:55;19.40;99.90
12957;DHT22;6543;48.836;10.092;2022-10-23T12:54:23;19.20;99.90
12957;DHT22;6543;48.836;10.092;2022-10-23T12:56:50;19.40;99.90
12957;DHT22;6543;48.836;10.092;2022-10-23T12:59:19;19.50;99.90
12957;DHT22;6543;48.836;10.092;2022-10-23T13:01:49;19.40;99.90
12957;DHT22;6543;48.836;10.092;2022-10-23T13:04:22;19.10;99.90
12957;DHT22;6543;48.836;10.092;2022-10-23T13:06:51;19.10;99.90
12957;DHT22;6543;48.836;10.092;2022-10-23T13:09:22;19.00;99.90
12957;DHT22;6543;48.836;10.092;2022-10-23T13:11:50;19.10;99.90
12957;DHT22;6543;48.836;10.092;2022-10-23T13:14:30;19.10;99.90
12957;DHT22;6543;48.836;10.092;2022-10-23T13:17:00;19.10;99.90
12957;DHT22;6543;48.836;10.092;2022-10-23T13:19:27;19.20;99.90
12957;DHT22;6543;48.836;10.092;2022-10-23T13:21:54;19.40;99.90
12957;DHT22;6543;48.836;10.092;2022-10-23T13:24:22;19.50;99.90
12957;DHT22;6543;48.836;10.092;2022-10-23T13:26:50;19.70;99.90
12957;DHT22;6543;48.836;10.092;2022-10-23T13:29:19;19.70;99.90
12957;DHT22;6543;48.836;10.092;2022-10-23T13:31:47;19.80;99.90
12957;DHT22;6543;48.836;10.092;2022-10-23T13:34:23;19.90;99.90
12957;DHT22;6543;48.836;10.092;2022-10-23T13:37:01;20.00;99.90
12957;DHT22;6543;48.836;10.092;2022-10-23T13:39:30;20.10;99.90
12957;DHT22;6543;48.836;10.092;2022-10-23T13:42:07;20.10;99.90
12957;DHT22;6543;48.836;10.092;2022-10-23T13:44:35;20.20;99.90
12957;DHT22;6543;48.836;10.092;2022-10-23T13:47:02;20.10;99.90
12957;DHT22;6543;48.836;10.092;2022-10-23T13:49:31;20.00;99.90
12957;DHT22;6543;48.836;10.092;2022-10-23T13:51:58;20.10;99.90
12957;DHT22;6543;48.836;10.092;2022-10-23T13:54:26;20.00;99.90
12957;DHT22;6543;48.836;10.092;2022-10-23T13:56:54;20.00;99.90
12957;DHT22;6543;48.836;10.092;2022-10-23T13:59:21;20.10;99.90
12957;DHT22;6543;48.836;10.092;2022-10-23T14:01:48;20.00;99.90
12957;DHT22;6543;48.836;10.092;2022-10-23T14:04:17;20.00;99.90
12957;DHT22;6543;48.836;10.092;2022-10-23T14:06:45;19.80;99.90
12957;DHT22;6543;48.836;10.092;2022-10-23T14:09:14;19.70;99.90
12957;DHT22;6543;48.836;10.092;2022-10-23T14:11:41;19.50;99.90
12957;DHT22;6543;48.836;10.092;2022-10-23T14:14:08;19.30;99.90
12957;DHT22;6543;48.836;10.092;2022-10-23T14:16:35;19.40;99.90
12957;DHT22;6543;48.836;10.092;2022-10-23T14:19:02;19.20;99.90
12957;DHT22;6543;48.836;10.092;2022-10-23T14:21:29;19.00;99.90
12957;DHT22;6543;48.836;10.092;2022-10-23T14:23:57;18.90;99.90
12957;DHT22;6543;48.836;10.092;2022-10-23T14:26:25;18.90;99.90
12957;DHT22;6543;48.836;10.092;2022-10-23T14:28:55;19.00;99.90
12957;DHT22;6543;48.836;10.092;2022-10-23T14:31:23;19.00;99.90
12957;DHT22;6543;48.836;10.092;2022-10-23T14:33:52;19.10;99.90
12957;DHT22;6543;48.836;10.092;2022-10-23T14:36:20;19.00;99.90
12957;DHT22;6543;48.836;10.092;2022-10-23T14:38:47;19.00;99.90
12957;DHT22;6543;48.836;10.092;2022-10-23T14:41:16;18.90;99.90
12957;DHT22;6543;48.836;10.092;2022-10-23T14:43:43;18.70;99.90
12957;DHT22;6543;48.836;10.092;2022-10-23T14:46:12;18.70;99.90
12957;DHT22;6543;48.836;10.092;2022-10-23T14:48:40;18.60;99.90
12957;DHT22;6543;48.836;10.092;2022-10-23T14:51:16;18.60;99.90
12957;DHT22;6543;48.836;10.092;2022-10-23T14:53:43;18.50;99.90
12957;DHT22;6543;48.836;10.092;2022-10-23T14:56:10;18.30;99.90
12957;DHT22;6543;48.836;10.092;2022-10-23T14:58:39;18.20;99.90
12957;DHT22;6543;48.836;10.092;2022-10-23T15:01:07;18.10;99.90
12957;DHT22;6543;48.836;10.092;2022-10-23T15:03:34;18.00;99.90
12957;DHT22;6543;48.836;10.092;2022-10-23T15:06:01;18.00;99.90
12957;DHT22;6543;48.836;10.092;2022-10-23T15:08:28;17.90;99.90
12957;DHT22;6543;48.836;10.092;2022-10-23T15:10:58;17.80;99.90
12957;DHT22;6543;48.836;10.092;2022-10-23T15:13:25;17.80;99.90
12957;DHT22;6543;48.836;10.092;2022-10-23T15:16:02;17.70;99.90
12957;DHT22;6543;48.836;10.092;2022-10-23T15:18:29;17.70;99.90
12957;DHT22;6543;48.836;10.092;2022-10-23T15:20:56;17.70;99.90
12957;DHT22;6543;48.836;10.092;2022-10-23T15:23:23;17.60;99.90
12957;DHT22;6543;48.836;10.092;2022-10-23T15:25:57;17.60;99.90
12957;DHT22;6543;48.836;10.092;2022-10-23T15:28:24;17.60;99.90
12957;DHT22;6543;48.836;10.092;2022-10-23T15:30:51;17.50;99.90
12957;DHT22;6543;48.836;10.092;2022-10-23T15:33:20;17.50;99.90
12957;DHT22;6543;48.836;10.092;2022-10-23T15:35:47;17.40;99.90
12957;DHT22;6543;48.836;10.092;2022-10-23T15:38:14;17.40;99.90
12957;DHT22;6543;48.836;10.092;2022-10-23T15:40:41;17.30;99.90
12957;DHT22;6543;48.836;10.092;2022-10-23T15:43:09;17.20;99.90
12957;DHT22;6543;48.836;10.092;2022-10-23T15:45:36;17.20;99.90
12957;DHT22;6543;48.836;10.092;2022-10-23T15:48:04;17.10;99.90
12957;DHT22;6543;48.836;10.092;2022-10-23T15:50:33;17.00;99.90
12957;DHT22;6543;48.836;10.092;2022-10-23T15:53:00;17.00;99.90
12957;DHT22;6543;48.836;10.092;2022-10-23T15:55:27;16.90;99.90
12957;DHT22;6543;48.836;10.092;2022-10-23T15:57:54;16.90;99.90
12957;DHT22;6543;48.836;10.092;2022-10-23T16:00:23;17.00;99.90
12957;DHT22;6543;48.836;10.092;2022-10-23T16:02:50;17.00;99.90